Terminal Aerodrome Forecast
Issued by NWS Duluth, MN

Home | Current Version | Previous Version | Text Only | Print | Product List | Glossary On
Versions: 1 2 3 4 5 6 7 8 9 10 11 12 13 14 15 16 17 18 19 20 21 22 23 24 25 26
000
FTUS43 KDLH 081700
TAFINL
TAF
KINL 081720Z 0818/0918 03007KT P6SM VCSH BKN015 OVC030
      TEMPO 0819/0820 SCT025 BKN035
     FM082000 33013G23KT P6SM VCSH SCT030 BKN040
     FM090100 33009KT P6SM FEW040
     FM090400 30003KT P6SM SKC=

USA.gov is the U.S. government's official web portal to all federal, state and local government web resources and services.